createdAt,value
2019-05-23T00:02:12.751Z,16.67
2019-05-23T00:06:40.403Z,16.59
2019-05-23T00:11:24.795Z,16.74
2019-05-23T00:15:42.288Z,16.57
2019-05-23T00:19:52.422Z,16.30
2019-05-23T00:24:00.268Z,16.62
2019-05-23T00:28:08.993Z,16.76
2019-05-23T00:32:32.424Z,16.91
2019-05-23T00:36:42.072Z,16.83
2019-05-23T00:40:50.858Z,16.86
2019-05-23T00:44:59.219Z,16.79
2019-05-23T00:49:09.649Z,16.81
2019-05-23T00:53:18.612Z,16.66
2019-05-23T00:57:27.711Z,16.66
2019-05-23T01:01:37.856Z,16.46
2019-05-23T01:05:46.730Z,16.28
2019-05-23T01:09:54.740Z,16.15
2019-05-23T01:14:03.683Z,16.43
2019-05-23T01:18:13.814Z,16.59
2019-05-23T01:22:26.388Z,16.68
2019-05-23T01:26:34.470Z,16.34
2019-05-23T01:30:45.397Z,15.84
2019-05-23T01:34:55.341Z,15.81
2019-05-23T01:39:04.466Z,15.91
2019-05-23T01:43:14.618Z,16.08
2019-05-23T01:47:23.500Z,15.84
2019-05-23T01:51:32.598Z,15.82
2019-05-23T01:55:40.891Z,15.92
2019-05-23T02:00:06.114Z,15.96
2019-05-23T02:03:59.949Z,16.18
2019-05-23T02:08:11.737Z,16.57
2019-05-23T02:12:20.588Z,16.59
2019-05-23T02:16:29.357Z,16.43
2019-05-23T02:20:37.231Z,16.40
2019-05-23T02:24:46.658Z,16.42
2019-05-23T02:28:55.384Z,16.45
2019-05-23T02:33:03.711Z,16.39
2019-05-23T02:37:31.119Z,16.70
2019-05-23T02:41:55.241Z,17.34
2019-05-23T02:46:08.350Z,17.34
2019-05-23T02:50:23.830Z,17.33
2019-05-23T02:54:37.289Z,17.30
2019-05-23T02:59:42.301Z,17.30
2019-05-23T03:03:51.642Z,17.12
2019-05-23T03:08:04.691Z,16.72
2019-05-23T03:12:15.576Z,16.54
2019-05-23T03:16:24.412Z,16.59
2019-05-23T03:20:35.192Z,16.65
2019-05-23T03:24:43.469Z,16.71
2019-05-23T03:28:52.412Z,16.71
2019-05-23T03:33:02.531Z,16.80
2019-05-23T03:37:11.026Z,16.95
2019-05-23T03:41:18.682Z,17.21
2019-05-23T03:45:30.689Z,17.55
2019-05-23T03:49:39.920Z,18.16
2019-05-23T03:53:49.456Z,18.16
2019-05-23T03:57:57.885Z,18.47
2019-05-23T04:02:09.481Z,18.71
2019-05-23T04:06:17.430Z,18.29
2019-05-23T04:10:25.863Z,17.26
2019-05-23T04:14:33.972Z,17.26
2019-05-23T04:18:42.322Z,16.86
2019-05-23T04:22:50.790Z,16.86
2019-05-23T04:26:58.273Z,16.75
2019-05-23T04:31:07.737Z,16.86
2019-05-23T04:35:15.912Z,17.01
2019-05-23T04:39:24.711Z,17.27
2019-05-23T04:43:32.204Z,17.27
2019-05-23T04:47:40.756Z,17.57
2019-05-23T04:51:49.097Z,17.92
2019-05-23T04:55:56.733Z,18.28
2019-05-23T05:00:06.546Z,18.24
2019-05-23T05:04:15.472Z,18.14
2019-05-23T05:08:22.980Z,18.19
2019-05-23T05:12:31.489Z,18.40
2019-05-23T05:16:39.061Z,18.40
2019-05-23T05:20:47.609Z,18.37
2019-05-23T05:24:55.700Z,18.52
2019-05-23T05:29:05.292Z,18.88
2019-05-23T05:33:13.737Z,19.06
2019-05-23T05:37:21.732Z,19.07
2019-05-23T05:41:29.250Z,19.52
2019-05-23T05:45:37.608Z,19.38
2019-05-23T05:49:46.090Z,19.82
2019-05-23T05:53:53.972Z,20.41
2019-05-23T05:58:02.918Z,20.45
2019-05-23T06:02:12.893Z,21.17
2019-05-23T06:06:32.303Z,21.81
2019-05-23T06:10:40.290Z,21.98
2019-05-23T06:14:47.868Z,21.63
2019-05-23T06:18:56.143Z,21.28
2019-05-23T06:23:05.531Z,21.29
2019-05-23T06:27:14.579Z,21.60
2019-05-23T06:31:23.465Z,21.93
2019-05-23T06:35:30.946Z,22.02
2019-05-23T06:39:39.969Z,22.12
2019-05-23T06:43:48.322Z,22.49
2019-05-23T06:47:55.917Z,22.94
2019-05-23T06:52:04.768Z,23.18
2019-05-23T06:56:13.814Z,23.26
2019-05-23T07:00:25.096Z,23.55
2019-05-23T07:04:33.253Z,23.68
2019-05-23T07:08:40.713Z,23.53
2019-05-23T07:12:48.745Z,23.45
2019-05-23T07:16:56.325Z,22.89
2019-05-23T07:21:05.817Z,23.32
2019-05-23T07:25:14.460Z,23.88
2019-05-23T07:29:22.236Z,24.18
2019-05-23T07:33:30.665Z,24.66
2019-05-23T07:37:38.335Z,25.42
2019-05-23T07:41:46.387Z,25.16
2019-05-23T07:45:59.351Z,24.59
2019-05-23T07:50:07.178Z,24.16
2019-05-23T07:54:29.053Z,23.52
2019-05-23T07:58:38.299Z,23.13
2019-05-23T08:02:49.306Z,23.05
2019-05-23T08:06:57.970Z,23.14
2019-05-23T08:11:05.960Z,24.48
2019-05-23T08:15:17.252Z,25.57
2019-05-23T08:19:25.018Z,26.18
2019-05-23T08:23:34.686Z,26.02
2019-05-23T08:27:44.624Z,26.02
2019-05-23T08:31:52.679Z,25.37
2019-05-23T08:36:02.383Z,25.89
2019-05-23T08:40:11.232Z,26.48
2019-05-23T08:44:20.531Z,27.15
2019-05-23T08:48:29.541Z,26.24
2019-05-23T08:52:37.228Z,26.15
2019-05-23T08:56:45.924Z,26.39
2019-05-23T09:00:55.060Z,26.80
2019-05-23T09:05:06.452Z,26.97
2019-05-23T09:09:29.061Z,26.68
2019-05-23T09:13:24.878Z,27.26
2019-05-23T09:17:49.757Z,28.26
2019-05-23T09:21:43.751Z,28.31
2019-05-23T09:25:51.564Z,28.31
2019-05-23T09:30:00.637Z,28.06
2019-05-23T09:34:09.396Z,28.06
2019-05-23T09:38:17.037Z,28.08
2019-05-23T09:42:25.291Z,26.27
2019-05-23T09:46:32.854Z,26.81
2019-05-23T09:50:41.410Z,27.22
2019-05-23T09:54:49.496Z,27.22
2019-05-23T09:58:57.156Z,28.10
2019-05-23T10:03:07.289Z,27.84
2019-05-23T10:07:16.515Z,27.67
2019-05-23T10:11:24.079Z,27.22
2019-05-23T10:15:51.678Z,26.71
2019-05-23T10:19:59.137Z,26.18
2019-05-23T10:24:06.792Z,26.41
2019-05-23T10:28:15.637Z,26.96
2019-05-23T10:32:23.079Z,26.97
2019-05-23T10:36:31.147Z,27.69
2019-05-23T10:40:40.243Z,28.35
2019-05-23T10:44:47.790Z,28.35
2019-05-23T10:48:56.523Z,28.35
2019-05-23T10:53:05.152Z,28.72
2019-05-23T10:57:12.790Z,29.21
2019-05-23T11:01:21.692Z,29.44
2019-05-23T11:05:29.620Z,28.87
2019-05-23T11:09:38.668Z,27.14
2019-05-23T11:13:46.845Z,27.77
2019-05-23T11:17:54.764Z,28.80
2019-05-23T11:22:03.379Z,28.80
2019-05-23T11:26:11.705Z,29.35
2019-05-23T11:30:27.250Z,28.03
2019-05-23T11:34:35.697Z,28.59
2019-05-23T11:38:43.348Z,28.59
2019-05-23T11:42:52.801Z,28.20
2019-05-23T11:47:01.900Z,28.20
2019-05-23T11:51:09.773Z,27.99
2019-05-23T11:55:18.211Z,28.45
2019-05-23T11:59:26.753Z,29.21
2019-05-23T12:03:34.506Z,29.34
2019-05-23T12:07:45.433Z,29.04
2019-05-23T12:11:53.155Z,29.45
2019-05-23T12:16:02.267Z,30.39
2019-05-23T12:20:10.213Z,30.08
2019-05-23T12:24:18.971Z,29.97
2019-05-23T12:28:28.529Z,30.30
2019-05-23T12:32:36.118Z,29.85
2019-05-23T12:36:44.141Z,29.72
2019-05-23T12:40:52.215Z,29.73
2019-05-23T12:44:59.822Z,29.74
2019-05-23T12:49:38.926Z,29.50
2019-05-23T12:53:47.427Z,29.78
2019-05-23T12:57:55.349Z,29.25
2019-05-23T13:02:05.512Z,29.62
2019-05-23T13:06:15.031Z,29.19
2019-05-23T13:10:25.022Z,28.99
2019-05-23T13:14:33.847Z,29.29
2019-05-23T13:18:41.588Z,29.57
2019-05-23T13:22:49.786Z,29.63
2019-05-23T13:26:57.805Z,29.32
2019-05-23T13:31:05.771Z,28.94
2019-05-23T13:35:14.765Z,29.22
2019-05-23T13:39:22.313Z,28.72
2019-05-23T13:43:30.765Z,28.45
2019-05-23T13:47:38.838Z,28.69
2019-05-23T13:51:47.123Z,28.73
2019-05-23T13:55:55.899Z,28.85
2019-05-23T14:00:04.233Z,28.73
2019-05-23T14:04:12.406Z,26.68
2019-05-23T14:08:21.294Z,26.48
2019-05-23T14:12:28.972Z,26.12
2019-05-23T14:16:56.214Z,26.12
2019-05-23T14:21:05.024Z,26.64
2019-05-23T14:25:12.697Z,26.48
2019-05-23T14:29:21.196Z,26.11
2019-05-23T14:34:00.016Z,26.11
2019-05-23T14:38:09.855Z,25.48
2019-05-23T14:42:35.861Z,25.48
2019-05-23T14:46:54.537Z,25.36
2019-05-23T14:51:19.597Z,24.77
2019-05-23T14:55:27.867Z,24.43
2019-05-23T14:59:36.554Z,24.43
2019-05-23T15:03:44.769Z,24.33
2019-05-23T15:07:52.328Z,24.68
2019-05-23T15:12:01.852Z,24.68
2019-05-23T15:16:10.029Z,24.85
2019-05-23T15:20:17.862Z,24.56
2019-05-23T15:24:26.219Z,24.50
2019-05-23T15:28:33.774Z,24.35
2019-05-23T15:32:42.313Z,24.57
2019-05-23T15:36:50.760Z,24.10
2019-05-23T15:40:58.591Z,24.10
2019-05-23T15:45:07.685Z,23.95
2019-05-23T15:49:15.931Z,23.94
2019-05-23T15:53:42.818Z,23.84
2019-05-23T15:57:59.746Z,23.95
2019-05-23T16:02:32.030Z,23.91
2019-05-23T16:06:41.611Z,24.04
2019-05-23T16:10:50.141Z,23.95
2019-05-23T16:14:57.839Z,24.02
2019-05-23T16:19:07.018Z,24.22
2019-05-23T16:23:15.623Z,24.22
2019-05-23T16:27:23.814Z,24.40
2019-05-23T16:31:32.294Z,24.27
2019-05-23T16:35:39.757Z,24.06
2019-05-23T16:39:50.012Z,23.79
2019-05-23T16:43:58.464Z,23.70
2019-05-23T16:48:07.388Z,23.78
2019-05-23T16:52:15.652Z,24.07
2019-05-23T16:56:29.549Z,24.06
2019-05-23T17:01:06.123Z,23.96
2019-05-23T17:05:34.448Z,23.56
2019-05-23T17:10:08.236Z,23.39
2019-05-23T17:14:16.655Z,23.62
2019-05-23T17:18:43.586Z,23.60
2019-05-23T17:23:07.248Z,23.77
2019-05-23T17:27:49.859Z,23.65
2019-05-23T17:31:59.783Z,23.44
2019-05-23T17:36:08.193Z,23.12
2019-05-23T17:40:24.864Z,22.68
2019-05-23T17:44:27.705Z,22.67
2019-05-23T17:48:35.571Z,22.81
2019-05-23T17:52:44.428Z,22.74
2019-05-23T17:56:51.923Z,22.72
2019-05-23T18:01:00.699Z,22.73
2019-05-23T18:05:09.049Z,22.49
2019-05-23T18:09:17.242Z,22.37
2019-05-23T18:13:25.746Z,22.18
2019-05-23T18:17:33.797Z,21.90
2019-05-23T18:21:42.227Z,21.92
2019-05-23T18:25:50.232Z,21.97
2019-05-23T18:29:59.515Z,21.95
2019-05-23T18:34:09.505Z,22.03
2019-05-23T18:38:18.357Z,22.03
2019-05-23T18:42:26.508Z,22.11
2019-05-23T18:46:39.208Z,22.14
2019-05-23T18:50:48.058Z,21.92
2019-05-23T18:54:56.537Z,21.87
2019-05-23T18:59:05.869Z,21.85
2019-05-23T19:03:14.739Z,21.97
2019-05-23T19:07:22.982Z,21.90
2019-05-23T19:11:31.437Z,21.83
2019-05-23T19:15:40.363Z,21.61
2019-05-23T19:19:48.799Z,21.51
2019-05-23T19:23:57.586Z,21.61
2019-05-23T19:28:05.871Z,21.44
2019-05-23T19:32:14.521Z,21.18
2019-05-23T19:36:23.906Z,21.03
2019-05-23T19:40:32.914Z,20.98
2019-05-23T19:44:40.845Z,20.90
2019-05-23T19:48:48.635Z,20.93
2019-05-23T19:52:57.108Z,20.91
2019-05-23T19:57:05.338Z,20.97
2019-05-23T20:01:14.464Z,21.18
2019-05-23T20:05:41.716Z,21.15
2019-05-23T20:09:50.183Z,21.05
2019-05-23T20:13:57.779Z,20.99
2019-05-23T20:18:06.797Z,21.10
2019-05-23T20:22:15.751Z,20.93
2019-05-23T20:26:23.297Z,20.93
2019-05-23T20:30:59.830Z,21.05
2019-05-23T20:35:08.544Z,21.12
2019-05-23T20:39:17.314Z,20.97
2019-05-23T20:43:26.116Z,20.91
2019-05-23T20:47:34.757Z,21.02
2019-05-23T20:51:42.246Z,21.03
2019-05-23T20:55:50.244Z,20.88
2019-05-23T20:59:57.718Z,20.64
2019-05-23T21:04:06.468Z,20.70
2019-05-23T21:08:14.802Z,20.72
2019-05-23T21:12:30.078Z,20.82
2019-05-23T21:16:32.602Z,20.70
2019-05-23T21:20:40.277Z,20.55
2019-05-23T21:24:48.074Z,20.30
2019-05-23T21:28:56.445Z,20.36
2019-05-23T21:33:03.951Z,20.31
2019-05-23T21:37:12.841Z,20.28
2019-05-23T21:41:21.202Z,20.28
2019-05-23T21:45:28.640Z,20.12
2019-05-23T21:49:36.626Z,20.14
2019-05-23T21:53:44.085Z,20.37
2019-05-23T21:57:51.588Z,20.49
2019-05-23T22:02:11.911Z,20.65
2019-05-23T22:06:21.120Z,20.75
2019-05-23T22:10:45.371Z,20.88
2019-05-23T22:14:55.298Z,20.88
2019-05-23T22:19:04.648Z,20.75
2019-05-23T22:23:13.108Z,20.60
2019-05-23T22:27:21.542Z,20.66
2019-05-23T22:31:29.855Z,20.64
2019-05-23T22:35:38.191Z,20.62
2019-05-23T22:39:45.966Z,20.44
2019-05-23T22:43:54.014Z,20.11
2019-05-23T22:48:02.644Z,20.01
2019-05-23T22:52:10.295Z,19.84
2019-05-23T22:56:18.883Z,19.88
2019-05-23T23:00:32.828Z,20.04
2019-05-23T23:04:41.301Z,20.27
2019-05-23T23:08:49.877Z,20.41
2019-05-23T23:12:57.507Z,20.46
2019-05-23T23:17:06.094Z,20.41
2019-05-23T23:21:14.850Z,20.37
2019-05-23T23:25:22.353Z,20.41
2019-05-23T23:29:30.972Z,20.30
2019-05-23T23:33:40.242Z,20.24
2019-05-23T23:37:48.729Z,20.08
2019-05-23T23:41:56.736Z,20.08
2019-05-23T23:46:22.337Z,20.07
2019-05-23T23:50:47.921Z,20.03
2019-05-23T23:55:13.840Z,19.87
2019-05-23T23:59:20.379Z,19.82
